createdAt,value
2022-12-27T00:00:54.402Z,101760.06
2022-12-27T00:03:41.082Z,101761.59
2022-12-27T00:06:27.055Z,101758.78
2022-12-27T00:09:12.010Z,101751.06
2022-12-27T00:11:59.924Z,101754.53
2022-12-27T00:14:44.948Z,101761.41
2022-12-27T00:17:30.092Z,101762.78
2022-12-27T00:20:18.231Z,101761.25
2022-12-27T00:23:03.475Z,101768.84
2022-12-27T00:25:48.277Z,101775.59
2022-12-27T00:28:34.935Z,101776.34
2022-12-27T00:31:21.176Z,101768.41
2022-12-27T00:34:07.705Z,101772.53
2022-12-27T00:36:52.752Z,101772.75
2022-12-27T00:39:37.913Z,101780.78
2022-12-27T00:42:22.973Z,101785.00
2022-12-27T00:45:08.440Z,101777.06
2022-12-27T00:47:53.571Z,101780.72
2022-12-27T00:50:43.463Z,101777.72
2022-12-27T00:53:31.182Z,101780.25
2022-12-27T00:56:27.843Z,101780.94
2022-12-27T00:59:13.115Z,101788.19
2022-12-27T01:01:58.513Z,101780.59
2022-12-27T01:04:43.572Z,101784.75
2022-12-27T01:07:28.846Z,101787.19
2022-12-27T01:10:14.215Z,101786.53
2022-12-27T01:13:03.347Z,101787.19
2022-12-27T01:15:48.533Z,101780.84
2022-12-27T01:18:33.613Z,101785.69
2022-12-27T01:21:22.235Z,101785.03
2022-12-27T01:24:07.554Z,101786.00
2022-12-27T01:26:52.454Z,101786.28
2022-12-27T01:29:37.534Z,101786.84
2022-12-27T01:32:22.530Z,101793.78
2022-12-27T01:35:08.209Z,101792.59
2022-12-27T01:37:53.373Z,101787.06
2022-12-27T01:40:39.226Z,101800.16
2022-12-27T01:43:37.943Z,101801.31
2022-12-27T01:46:23.094Z,101800.53
2022-12-27T01:49:11.407Z,101807.47
2022-12-27T01:51:56.699Z,101806.94
2022-12-27T01:54:42.360Z,101808.34
2022-12-27T01:57:27.700Z,101820.22
2022-12-27T02:00:12.979Z,101821.16
2022-12-27T02:02:59.321Z,101823.44
2022-12-27T02:05:44.215Z,101823.63
2022-12-27T02:08:35.375Z,101827.91
2022-12-27T02:11:44.137Z,101828.75
2022-12-27T02:14:32.781Z,101832.22
2022-12-27T02:17:29.017Z,101835.34
2022-12-27T02:20:21.475Z,101831.00
2022-12-27T02:23:27.951Z,101832.44
2022-12-27T02:26:42.471Z,101829.50
2022-12-27T02:29:48.949Z,101817.44
2022-12-27T02:32:42.797Z,101828.88
2022-12-27T02:35:33.918Z,101827.66
2022-12-27T02:38:25.976Z,101835.06
2022-12-27T02:41:30.472Z,101833.56
2022-12-27T02:44:36.163Z,101829.25
2022-12-27T02:47:43.005Z,101837.31
2022-12-27T02:50:58.742Z,101824.94
2022-12-27T02:53:59.585Z,101828.59
2022-12-27T02:57:09.295Z,101831.41
2022-12-27T03:00:21.149Z,101836.91
2022-12-27T03:03:42.650Z,101834.59
2022-12-27T03:06:41.080Z,101841.16
2022-12-27T03:09:57.540Z,101845.94
2022-12-27T03:13:26.141Z,101849.47
2022-12-27T03:16:32.762Z,101848.84
2022-12-27T03:19:42.808Z,101850.59
2022-12-27T03:22:49.503Z,101847.50
2022-12-27T03:25:36.536Z,101853.03
2022-12-27T03:28:46.155Z,101855.44
2022-12-27T03:31:57.977Z,101856.13
2022-12-27T03:34:59.843Z,101849.91
2022-12-27T03:38:03.517Z,101856.00
2022-12-27T03:41:12.006Z,101859.94
2022-12-27T03:43:57.133Z,101863.13
2022-12-27T03:46:43.372Z,101862.47
2022-12-27T03:49:31.403Z,101866.69
2022-12-27T03:52:31.918Z,101866.31
2022-12-27T03:55:17.408Z,101873.50
2022-12-27T03:58:02.522Z,101870.03
2022-12-27T04:00:47.536Z,101870.31
2022-12-27T04:03:32.809Z,101876.47
2022-12-27T04:06:18.163Z,101879.09
2022-12-27T04:09:22.172Z,101882.56
2022-12-27T04:12:26.311Z,101884.31
2022-12-27T04:15:30.023Z,101881.78
2022-12-27T04:18:33.752Z,101879.34
2022-12-27T04:21:37.473Z,101875.50
2022-12-27T04:24:41.044Z,101869.66
2022-12-27T04:27:44.705Z,101876.69
2022-12-27T04:30:48.412Z,101874.53
2022-12-27T04:33:52.287Z,101877.09
2022-12-27T04:36:37.418Z,101870.16
2022-12-27T04:39:22.306Z,101871.06
2022-12-27T04:42:26.079Z,101874.28
2022-12-27T04:45:29.737Z,101870.53
2022-12-27T04:48:34.363Z,101869.72
2022-12-27T04:51:38.125Z,101861.28
2022-12-27T04:54:41.902Z,101864.84
2022-12-27T04:57:27.812Z,101863.75
2022-12-27T05:00:32.157Z,101861.56
2022-12-27T05:03:20.911Z,101861.41
2022-12-27T05:06:06.299Z,101862.59
2022-12-27T05:09:09.602Z,101875.06
2022-12-27T05:12:13.249Z,101860.25
2022-12-27T05:14:58.230Z,101861.78
2022-12-27T05:17:43.443Z,101875.38
2022-12-27T05:20:28.623Z,101879.97
2022-12-27T05:23:32.036Z,101878.53
2022-12-27T05:26:24.746Z,101889.16
2022-12-27T05:29:10.047Z,101894.00
2022-12-27T05:31:55.076Z,101897.84
2022-12-27T05:34:40.761Z,101896.63
2022-12-27T05:37:25.827Z,101896.34
2022-12-27T05:40:11.260Z,101894.84
2022-12-27T05:42:59.260Z,101906.38
2022-12-27T05:45:44.152Z,101887.78
2022-12-27T05:48:29.356Z,101891.44
2022-12-27T05:51:19.376Z,101901.09
2022-12-27T05:54:04.754Z,101905.53
2022-12-27T05:56:49.714Z,101902.13
2022-12-27T05:59:34.914Z,101903.16
2022-12-27T06:02:20.071Z,101910.09
2022-12-27T06:05:05.724Z,101907.66
2022-12-27T06:07:50.734Z,101906.44
2022-12-27T06:10:36.014Z,101910.19
2022-12-27T06:13:21.027Z,101906.34
2022-12-27T06:16:07.943Z,101916.44
2022-12-27T06:18:53.818Z,101923.28
2022-12-27T06:21:39.353Z,101927.75
2022-12-27T06:24:24.222Z,101931.88
2022-12-27T06:27:09.313Z,101930.88
2022-12-27T06:29:54.145Z,101928.69
2022-12-27T06:32:39.282Z,101931.38
2022-12-27T06:35:24.360Z,101928.13
2022-12-27T06:38:09.485Z,101934.63
2022-12-27T06:41:00.855Z,101941.47
2022-12-27T06:43:46.957Z,101943.41
2022-12-27T06:46:32.157Z,101945.09
2022-12-27T06:49:17.217Z,101943.31
2022-12-27T06:52:02.527Z,101951.94
2022-12-27T06:54:47.716Z,101948.47
2022-12-27T06:57:32.551Z,101957.03
2022-12-27T07:00:17.916Z,101954.19
2022-12-27T07:03:03.836Z,101958.44
2022-12-27T07:05:48.697Z,101971.88
2022-12-27T07:08:35.563Z,101976.28
2022-12-27T07:11:21.680Z,101978.34
2022-12-27T07:14:09.081Z,101978.34
2022-12-27T07:16:53.988Z,101992.16
2022-12-27T07:19:39.135Z,101995.38
2022-12-27T07:22:24.161Z,101997.53
2022-12-27T07:25:09.019Z,102004.13
2022-12-27T07:27:54.332Z,102002.03
2022-12-27T07:30:41.644Z,102007.19
2022-12-27T07:33:26.504Z,102008.03
2022-12-27T07:36:15.154Z,102014.69
2022-12-27T07:39:00.254Z,102014.44
2022-12-27T07:41:45.358Z,102013.66
2022-12-27T07:44:30.426Z,102016.22
2022-12-27T07:47:15.425Z,102024.09
2022-12-27T07:50:00.314Z,102021.72
2022-12-27T07:52:45.401Z,102027.06
2022-12-27T07:55:31.141Z,102023.88
2022-12-27T07:58:16.810Z,102038.25
2022-12-27T08:01:03.173Z,102044.84
2022-12-27T08:03:48.383Z,102048.56
2022-12-27T08:06:34.850Z,102051.34
2022-12-27T08:09:27.768Z,102040.53
2022-12-27T08:12:14.017Z,102042.72
2022-12-27T08:14:59.387Z,102032.88
2022-12-27T08:17:44.269Z,102029.66
2022-12-27T08:20:29.520Z,102031.53
2022-12-27T08:23:14.476Z,102031.00
2022-12-27T08:25:59.724Z,102033.56
2022-12-27T08:28:44.467Z,102035.84
2022-12-27T08:31:29.546Z,102035.91
2022-12-27T08:34:14.564Z,102037.63
2022-12-27T08:36:59.465Z,102032.78
2022-12-27T08:39:44.699Z,102032.25
2022-12-27T08:42:29.734Z,102025.97
2022-12-27T08:45:14.860Z,102032.25
2022-12-27T08:48:00.724Z,102027.19
2022-12-27T08:50:45.503Z,102022.50
2022-12-27T08:53:31.015Z,102032.06
2022-12-27T08:56:16.164Z,102033.41
2022-12-27T08:59:01.388Z,102032.47
2022-12-27T09:01:46.482Z,102023.84
2022-12-27T09:04:31.400Z,102039.91
2022-12-27T09:07:16.515Z,102043.94
2022-12-27T09:10:01.538Z,102049.75
2022-12-27T09:12:47.245Z,102042.22
2022-12-27T09:15:32.140Z,102048.31
2022-12-27T09:18:17.312Z,102047.69
2022-12-27T09:21:08.026Z,102041.47
2022-12-27T09:23:54.796Z,102037.03
2022-12-27T09:26:39.890Z,102029.50
2022-12-27T09:29:25.108Z,102034.28
2022-12-27T09:32:09.955Z,102041.31
2022-12-27T09:34:54.995Z,102047.91
2022-12-27T09:37:40.075Z,102048.47
2022-12-27T09:40:25.077Z,102042.16
2022-12-27T09:43:23.848Z,102034.78
2022-12-27T09:46:20.352Z,102035.31
2022-12-27T09:49:09.577Z,102033.75
2022-12-27T09:52:01.500Z,102037.50
2022-12-27T09:55:13.630Z,102033.09
2022-12-27T09:58:13.081Z,102029.94
2022-12-27T10:00:58.253Z,102029.13
2022-12-27T10:03:43.301Z,102026.28
2022-12-27T10:06:41.916Z,102029.25
2022-12-27T10:09:44.556Z,102025.25
2022-12-27T10:13:03.615Z,102019.53
2022-12-27T10:16:05.722Z,102024.91
2022-12-27T10:19:15.651Z,102020.19
2022-12-27T10:22:08.171Z,102021.88
2022-12-27T10:24:59.004Z,102018.44
2022-12-27T10:27:46.600Z,102022.25
2022-12-27T10:30:31.441Z,102021.16
2022-12-27T10:33:20.930Z,102017.28
2022-12-27T10:36:11.950Z,102026.06
2022-12-27T10:38:57.057Z,102035.22
2022-12-27T10:42:18.076Z,102032.72
2022-12-27T10:45:24.840Z,102020.41
2022-12-27T10:48:14.666Z,102014.88
2022-12-27T10:51:06.032Z,102018.50
2022-12-27T10:53:51.068Z,102010.53
2022-12-27T10:56:39.089Z,102012.72
2022-12-27T10:59:27.119Z,102012.97
2022-12-27T11:02:18.036Z,102012.16
2022-12-27T11:05:03.306Z,102011.06
2022-12-27T11:07:48.069Z,102009.38
2022-12-27T11:10:33.319Z,102016.47
2022-12-27T11:13:19.148Z,102010.97
2022-12-27T11:16:04.896Z,102020.44
2022-12-27T11:18:53.930Z,102015.81
2022-12-27T11:21:40.583Z,102024.41
2022-12-27T11:24:25.755Z,102018.38
2022-12-27T11:27:22.102Z,102023.66
2022-12-27T11:30:20.358Z,102023.63
2022-12-27T11:33:22.694Z,102019.56
2022-12-27T11:36:11.691Z,102022.66
2022-12-27T11:38:57.497Z,102022.28
2022-12-27T11:41:53.992Z,102013.53
2022-12-27T11:44:45.949Z,102021.75
2022-12-27T11:47:38.575Z,102010.91
2022-12-27T11:50:54.948Z,102016.81
2022-12-27T11:54:24.344Z,102006.53
2022-12-27T11:58:02.683Z,102015.00
2022-12-27T12:01:48.389Z,102011.69
2022-12-27T12:04:57.444Z,102002.03
2022-12-27T12:08:01.514Z,102001.38
2022-12-27T12:11:00.525Z,101998.91
2022-12-27T12:14:20.352Z,102001.59
2022-12-27T12:17:36.290Z,102002.59
2022-12-27T12:20:58.601Z,101988.00
2022-12-27T12:24:25.106Z,101990.88
2022-12-27T12:27:41.267Z,101986.47
2022-12-27T12:30:47.175Z,101981.75
2022-12-27T12:34:02.518Z,101976.47
2022-12-27T12:37:04.889Z,101979.28
2022-12-27T12:40:23.255Z,101971.53
2022-12-27T12:43:37.524Z,101965.66
2022-12-27T12:46:49.436Z,101964.09
2022-12-27T12:49:58.484Z,101961.84
2022-12-27T12:53:25.177Z,101965.25
2022-12-27T12:56:43.814Z,101963.69
2022-12-27T13:00:12.387Z,101955.78
2022-12-27T13:03:27.442Z,101953.47
2022-12-27T13:06:20.960Z,101945.19
2022-12-27T13:09:28.260Z,101944.72
2022-12-27T13:12:22.618Z,101946.53
2022-12-27T13:15:47.673Z,101936.06
2022-12-27T13:19:05.463Z,101937.03
2022-12-27T13:22:15.400Z,101937.13
2022-12-27T13:25:18.993Z,101933.28
2022-12-27T13:28:37.430Z,101931.00
2022-12-27T13:31:34.346Z,101938.34
2022-12-27T13:34:54.137Z,101923.69
2022-12-27T13:38:08.761Z,101920.59
2022-12-27T13:41:22.544Z,101912.75
2022-12-27T13:44:32.642Z,101906.53
2022-12-27T13:47:39.564Z,101910.09
2022-12-27T13:50:51.338Z,101900.13
2022-12-27T13:53:50.193Z,101901.34
2022-12-27T13:56:54.844Z,101902.31
2022-12-27T13:59:46.220Z,101900.75
2022-12-27T14:02:37.475Z,101901.34
2022-12-27T14:05:41.600Z,101895.56
2022-12-27T14:08:58.055Z,101881.66
2022-12-27T14:12:14.866Z,101896.44
2022-12-27T14:15:04.267Z,101899.44
2022-12-27T14:18:02.542Z,101897.88
2022-12-27T14:21:02.636Z,101899.66
2022-12-27T14:24:27.584Z,101894.50
2022-12-27T14:27:34.461Z,101894.09
2022-12-27T14:30:25.501Z,101898.78
2022-12-27T14:33:40.320Z,101902.19
2022-12-27T14:36:57.593Z,101905.88
2022-12-27T14:40:07.039Z,101901.81
2022-12-27T14:42:54.994Z,101897.69
2022-12-27T14:45:57.152Z,101903.78
2022-12-27T14:49:24.888Z,101898.22
2022-12-27T14:52:37.827Z,101888.38
2022-12-27T14:55:47.884Z,101890.75
2022-12-27T14:58:42.111Z,101891.28
2022-12-27T15:02:01.920Z,101897.03
2022-12-27T15:05:05.786Z,101907.66
2022-12-27T15:08:02.816Z,101902.97
2022-12-27T15:10:57.502Z,101892.97
2022-12-27T15:13:50.051Z,101896.13
2022-12-27T15:16:41.252Z,101894.47
2022-12-27T15:19:37.976Z,101891.13
2022-12-27T15:22:53.321Z,101887.34
2022-12-27T15:25:47.213Z,101890.06
2022-12-27T15:28:50.672Z,101894.81
2022-12-27T15:31:52.575Z,101895.88
2022-12-27T15:34:51.261Z,101900.88
2022-12-27T15:38:01.748Z,101881.91
2022-12-27T15:41:08.739Z,101883.91
2022-12-27T15:44:15.893Z,101882.44
2022-12-27T15:47:39.447Z,101867.72
2022-12-27T15:50:38.483Z,101861.88
2022-12-27T15:53:54.686Z,101853.25
2022-12-27T15:56:45.357Z,101853.81
2022-12-27T15:59:52.741Z,101852.03
2022-12-27T16:02:49.287Z,101853.09
2022-12-27T16:05:43.841Z,101850.75
2022-12-27T16:08:37.738Z,101847.31
2022-12-27T16:11:58.308Z,101855.28
2022-12-27T16:14:43.705Z,101845.09
2022-12-27T16:17:47.304Z,101851.84
2022-12-27T16:20:33.019Z,101847.00
2022-12-27T16:23:24.397Z,101851.09
2022-12-27T16:26:32.714Z,101862.47
2022-12-27T16:29:18.127Z,101851.59
2022-12-27T16:32:19.298Z,101863.31
2022-12-27T16:35:16.169Z,101861.00
2022-12-27T16:38:03.667Z,101860.88
2022-12-27T16:40:55.337Z,101860.78
2022-12-27T16:43:52.763Z,101854.25
2022-12-27T16:46:51.865Z,101853.84
2022-12-27T16:50:14.191Z,101856.69
2022-12-27T16:53:40.128Z,101849.50
2022-12-27T16:56:28.167Z,101855.28
2022-12-27T16:59:50.925Z,101856.41
2022-12-27T17:02:45.950Z,101848.22
2022-12-27T17:05:33.426Z,101852.94
2022-12-27T17:08:20.801Z,101858.91
2022-12-27T17:11:30.399Z,101866.28
2022-12-27T17:14:27.905Z,101859.75
2022-12-27T17:17:20.966Z,101858.25
2022-12-27T17:20:15.845Z,101860.81
2022-12-27T17:23:04.074Z,101853.41
2022-12-27T17:25:57.075Z,101854.03
2022-12-27T17:28:56.496Z,101862.25
2022-12-27T17:31:52.961Z,101858.88
2022-12-27T17:34:56.948Z,101848.75
2022-12-27T17:38:06.993Z,101839.38
2022-12-27T17:41:46.118Z,101846.72
2022-12-27T17:44:44.787Z,101837.47
2022-12-27T17:47:51.242Z,101842.50
2022-12-27T17:50:37.858Z,101847.47
2022-12-27T17:53:42.784Z,101837.81
2022-12-27T17:56:46.547Z,101837.50
2022-12-27T17:59:37.470Z,101830.59
2022-12-27T18:02:29.276Z,101825.72
2022-12-27T18:05:15.498Z,101838.66
2022-12-27T18:08:05.896Z,101834.44
2022-12-27T18:10:51.660Z,101834.97
2022-12-27T18:13:39.695Z,101837.84
2022-12-27T18:16:37.853Z,101833.06
2022-12-27T18:19:29.725Z,101835.66
2022-12-27T18:22:19.699Z,101819.31
2022-12-27T18:25:24.437Z,101813.25
2022-12-27T18:28:32.515Z,101819.75
2022-12-27T18:31:46.818Z,101806.75
2022-12-27T18:34:39.591Z,101799.91
2022-12-27T18:37:25.819Z,101784.03
2022-12-27T18:40:20.487Z,101779.69
2022-12-27T18:43:15.450Z,101781.06
2022-12-27T18:46:01.897Z,101770.69
2022-12-27T18:48:48.869Z,101781.94
2022-12-27T18:51:36.196Z,101786.34
2022-12-27T18:54:34.862Z,101772.47
2022-12-27T18:57:33.268Z,101775.19
2022-12-27T19:00:26.426Z,101767.94
2022-12-27T19:03:17.379Z,101772.16
2022-12-27T19:06:11.600Z,101766.34
2022-12-27T19:08:56.613Z,101753.53
2022-12-27T19:11:41.981Z,101757.75
2022-12-27T19:14:42.599Z,101759.72
2022-12-27T19:17:30.543Z,101750.38
2022-12-27T19:20:28.537Z,101739.31
2022-12-27T19:23:33.997Z,101740.78
2022-12-27T19:26:29.633Z,101735.19
2022-12-27T19:29:17.037Z,101730.19
2022-12-27T19:32:08.549Z,101729.53
2022-12-27T19:34:57.430Z,101723.84
2022-12-27T19:37:42.591Z,101713.53
2022-12-27T19:40:27.564Z,101708.50
2022-12-27T19:43:14.323Z,101719.44
2022-12-27T19:45:59.182Z,101716.28
2022-12-27T19:48:51.402Z,101704.66
2022-12-27T19:51:50.226Z,101702.53
2022-12-27T19:54:35.439Z,101694.66
2022-12-27T19:57:22.096Z,101693.69
2022-12-27T20:00:17.402Z,101694.53
2022-12-27T20:03:03.136Z,101690.84
2022-12-27T20:06:14.193Z,101690.94
2022-12-27T20:08:53.807Z,101689.34
2022-12-27T20:11:38.911Z,101698.94
2022-12-27T20:14:23.996Z,101702.09
2022-12-27T20:17:09.163Z,101697.88
2022-12-27T20:19:53.935Z,101697.56
2022-12-27T20:22:39.053Z,101687.13
2022-12-27T20:25:24.624Z,101682.38
2022-12-27T20:28:10.748Z,101690.25
2022-12-27T20:30:55.725Z,101695.84
2022-12-27T20:33:40.628Z,101684.69
2022-12-27T20:36:25.801Z,101681.19
2022-12-27T20:39:11.234Z,101669.66
2022-12-27T20:41:56.289Z,101674.56
2022-12-27T20:44:41.431Z,101676.66
2022-12-27T20:47:26.457Z,101669.44
2022-12-27T20:50:11.556Z,101661.25
2022-12-27T20:52:56.319Z,101662.09
2022-12-27T20:55:41.526Z,101661.00
2022-12-27T20:58:26.594Z,101665.59
2022-12-27T21:01:14.689Z,101650.19
2022-12-27T21:04:00.127Z,101666.00
2022-12-27T21:06:45.211Z,101649.47
2022-12-27T21:09:30.931Z,101642.28
2022-12-27T21:12:15.741Z,101641.75
2022-12-27T21:15:00.979Z,101643.72
2022-12-27T21:17:45.858Z,101644.94
2022-12-27T21:20:30.882Z,101650.72
2022-12-27T21:23:16.004Z,101642.72
2022-12-27T21:26:21.143Z,101642.63
2022-12-27T21:29:09.132Z,101637.72
2022-12-27T21:31:54.545Z,101632.47
2022-12-27T21:34:41.075Z,101635.50
2022-12-27T21:37:26.067Z,101616.84
2022-12-27T21:40:11.741Z,101607.72
2022-12-27T21:42:56.598Z,101606.75
2022-12-27T21:45:41.876Z,101594.72
2022-12-27T21:48:26.960Z,101595.03
2022-12-27T21:51:17.642Z,101592.06
2022-12-27T21:54:03.424Z,101589.88
2022-12-27T21:56:48.284Z,101579.88
2022-12-27T21:59:33.402Z,101584.72
2022-12-27T22:02:18.568Z,101579.13
2022-12-27T22:05:04.046Z,101564.75
2022-12-27T22:07:49.080Z,101553.84
2022-12-27T22:10:40.748Z,101558.03
2022-12-27T22:13:25.526Z,101546.56
2022-12-27T22:16:16.211Z,101534.91
2022-12-27T22:19:01.660Z,101542.38
2022-12-27T22:21:46.713Z,101546.97
2022-12-27T22:24:31.986Z,101540.56
2022-12-27T22:27:16.953Z,101539.00
2022-12-27T22:30:01.964Z,101547.81
2022-12-27T22:32:47.117Z,101540.91
2022-12-27T22:35:33.151Z,101541.72
2022-12-27T22:38:18.446Z,101526.94
2022-12-27T22:41:10.353Z,101523.25
2022-12-27T22:44:00.533Z,101524.94
2022-12-27T22:47:15.844Z,101515.66
2022-12-27T22:49:50.267Z,101499.78
2022-12-27T22:52:35.438Z,101497.56
2022-12-27T22:55:20.207Z,101495.06
2022-12-27T22:58:05.393Z,101491.19
2022-12-27T23:00:50.141Z,101490.75
2022-12-27T23:03:35.155Z,101477.81
2022-12-27T23:06:20.837Z,101480.56
2022-12-27T23:09:06.483Z,101466.97
2022-12-27T23:11:51.456Z,101461.63
2022-12-27T23:14:36.534Z,101451.97
2022-12-27T23:17:21.369Z,101462.69
2022-12-27T23:20:07.241Z,101452.19
2022-12-27T23:22:52.442Z,101446.81
2022-12-27T23:25:37.752Z,101435.56
2022-12-27T23:28:22.837Z,101435.03
2022-12-27T23:31:10.564Z,101419.03
2022-12-27T23:33:55.547Z,101414.19
2022-12-27T23:36:40.808Z,101402.13
2022-12-27T23:39:26.288Z,101398.28
2022-12-27T23:42:11.342Z,101385.13
2022-12-27T23:44:56.394Z,101384.06
2022-12-27T23:47:41.487Z,101359.34
2022-12-27T23:50:26.302Z,101352.50
2022-12-27T23:53:11.257Z,101351.59
2022-12-27T23:56:07.191Z,101345.09
2022-12-27T23:58:54.244Z,101339.31
